createdAt,value
2023-04-07T00:00:34.981Z,7.29
2023-04-07T00:01:34.994Z,7.26
2023-04-07T00:02:35.032Z,7.32
2023-04-07T00:03:35.051Z,7.35
2023-04-07T00:04:35.010Z,7.41
2023-04-07T00:05:34.928Z,7.45
2023-04-07T00:06:34.953Z,7.52
2023-04-07T00:07:39.593Z,7.50
2023-04-07T00:08:34.897Z,7.45
2023-04-07T00:09:34.882Z,7.40
2023-04-07T00:10:34.878Z,7.44
2023-04-07T00:11:34.897Z,7.44
2023-04-07T00:12:34.847Z,7.42
2023-04-07T00:13:34.851Z,7.42
2023-04-07T00:14:34.840Z,7.45
2023-04-07T00:15:34.826Z,7.41
2023-04-07T00:16:34.814Z,7.45
2023-04-07T00:17:34.903Z,7.47
2023-04-07T00:18:34.782Z,7.49
2023-04-07T00:19:34.789Z,7.49
2023-04-07T00:20:34.785Z,7.49
2023-04-07T00:21:34.746Z,7.47
2023-04-07T00:22:34.761Z,7.44
2023-04-07T00:23:34.749Z,7.41
2023-04-07T00:24:34.972Z,7.38
2023-04-07T00:25:34.723Z,7.35
2023-04-07T00:26:34.696Z,7.32
2023-04-07T00:27:34.689Z,7.32
2023-04-07T00:28:34.680Z,7.32
2023-04-07T00:29:34.700Z,7.31
2023-04-07T00:30:34.684Z,7.29
2023-04-07T00:31:34.685Z,7.32
2023-04-07T00:32:35.389Z,7.31
2023-04-07T00:33:34.628Z,7.31
2023-04-07T00:34:34.638Z,7.34
2023-04-07T00:35:34.622Z,7.35
2023-04-07T00:36:34.624Z,7.34
2023-04-07T00:37:34.574Z,7.38
2023-04-07T00:38:34.579Z,7.44
2023-04-07T00:39:34.566Z,7.47
2023-04-07T00:40:34.570Z,7.44
2023-04-07T00:41:34.536Z,7.41
2023-04-07T00:42:34.546Z,7.41
2023-04-07T00:43:34.520Z,7.41
2023-04-07T00:44:34.504Z,7.34
2023-04-07T00:45:34.504Z,7.29
2023-04-07T00:46:34.540Z,7.27
2023-04-07T00:47:34.547Z,7.23
2023-04-07T00:48:34.473Z,7.22
2023-04-07T00:49:34.450Z,7.23
2023-04-07T00:50:34.451Z,7.26
2023-04-07T00:51:34.436Z,7.29
2023-04-07T00:52:34.426Z,7.26
2023-04-07T00:53:34.410Z,7.24
2023-04-07T00:54:34.405Z,7.32
2023-04-07T00:55:34.387Z,7.32
2023-04-07T00:56:34.410Z,7.34
2023-04-07T00:57:34.359Z,7.32
2023-04-07T00:58:34.369Z,7.26
2023-04-07T00:59:34.351Z,7.24
2023-04-07T01:00:34.338Z,7.22
2023-04-07T01:01:34.373Z,7.23
2023-04-07T01:02:34.519Z,7.20
2023-04-07T01:03:34.894Z,7.19
2023-04-07T01:04:34.490Z,7.13
2023-04-07T01:05:34.304Z,7.13
2023-04-07T01:06:34.285Z,7.15
2023-04-07T01:07:34.287Z,7.16
2023-04-07T01:08:34.253Z,7.17
2023-04-07T01:09:34.242Z,7.23
2023-04-07T01:10:34.270Z,7.24
2023-04-07T01:11:34.221Z,7.23
2023-04-07T01:12:34.260Z,7.24
2023-04-07T01:13:34.227Z,7.27
2023-04-07T01:14:34.198Z,7.26
2023-04-07T01:15:34.182Z,7.26
2023-04-07T01:16:34.290Z,7.23
2023-04-07T01:17:34.211Z,7.22
2023-04-07T01:18:34.165Z,7.19
2023-04-07T01:19:34.146Z,7.19
2023-04-07T01:20:34.138Z,7.22
2023-04-07T01:21:34.130Z,7.26
2023-04-07T01:22:34.139Z,7.24
2023-04-07T01:23:34.100Z,7.27
2023-04-07T01:24:34.125Z,7.32
2023-04-07T01:25:34.097Z,7.31
2023-04-07T01:26:34.089Z,7.31
2023-04-07T01:27:34.071Z,7.27
2023-04-07T01:28:34.074Z,7.22
2023-04-07T01:29:34.035Z,7.20
2023-04-07T01:30:34.036Z,7.17
2023-04-07T01:31:34.041Z,7.15
2023-04-07T01:32:34.071Z,7.16
2023-04-07T01:33:35.472Z,7.13
2023-04-07T01:34:34.006Z,7.15
2023-04-07T01:35:33.983Z,7.09
2023-04-07T01:36:33.977Z,7.09
2023-04-07T01:37:33.981Z,7.13
2023-04-07T01:38:33.947Z,7.12
2023-04-07T01:39:33.949Z,7.08
2023-04-07T01:40:33.934Z,7.09
2023-04-07T01:41:33.921Z,7.04
2023-04-07T01:42:33.934Z,7.02
2023-04-07T01:43:33.917Z,7.04
2023-04-07T01:44:33.925Z,7.05
2023-04-07T01:45:33.889Z,7.08
2023-04-07T01:46:33.906Z,7.08
2023-04-07T01:47:33.911Z,7.08
2023-04-07T01:48:33.852Z,7.08
2023-04-07T01:49:33.840Z,7.05
2023-04-07T01:50:33.830Z,7.02
2023-04-07T01:51:33.809Z,7.04
2023-04-07T01:52:33.798Z,7.05
2023-04-07T01:53:33.798Z,7.04
2023-04-07T01:54:33.781Z,7.04
2023-04-07T01:55:33.769Z,7.07
2023-04-07T01:56:33.766Z,7.04
2023-04-07T01:57:33.742Z,7.02
2023-04-07T01:58:33.761Z,7.01
2023-04-07T01:59:33.754Z,6.99
2023-04-07T02:00:33.721Z,7.01
2023-04-07T02:01:33.803Z,7.01
2023-04-07T02:02:33.828Z,6.99
2023-04-07T02:03:33.771Z,6.99
2023-04-07T02:04:33.691Z,6.99
2023-04-07T02:05:33.667Z,7.01
2023-04-07T02:06:33.665Z,7.02
2023-04-07T02:07:33.667Z,7.05
2023-04-07T02:08:33.636Z,7.05
2023-04-07T02:09:33.626Z,7.07
2023-04-07T02:10:33.647Z,7.05
2023-04-07T02:11:33.592Z,7.04
2023-04-07T02:12:33.621Z,7.02
2023-04-07T02:13:33.584Z,7.05
2023-04-07T02:14:33.612Z,7.08
2023-04-07T02:15:33.549Z,7.09
2023-04-07T02:16:33.591Z,7.09
2023-04-07T02:17:33.526Z,7.07
2023-04-07T02:18:33.558Z,7.08
2023-04-07T02:19:33.520Z,7.08
2023-04-07T02:20:33.515Z,7.05
2023-04-07T02:21:33.485Z,7.04
2023-04-07T02:22:33.512Z,7.02
2023-04-07T02:23:33.427Z,7.04
2023-04-07T02:24:33.501Z,7.07
2023-04-07T02:25:33.483Z,7.05
2023-04-07T02:26:35.271Z,7.01
2023-04-07T02:27:33.445Z,6.98
2023-04-07T02:28:33.427Z,6.95
2023-04-07T02:29:33.407Z,6.91
2023-04-07T02:30:33.404Z,6.86
2023-04-07T02:31:33.403Z,6.83
2023-04-07T02:32:33.414Z,6.80
2023-04-07T02:33:33.370Z,6.79
2023-04-07T02:34:33.375Z,6.76
2023-04-07T02:35:33.363Z,6.73
2023-04-07T02:36:33.359Z,6.69
2023-04-07T02:37:33.341Z,6.66
2023-04-07T02:38:33.323Z,6.68
2023-04-07T02:39:33.379Z,6.68
2023-04-07T02:40:33.320Z,6.66
2023-04-07T02:41:33.297Z,6.66
2023-04-07T02:42:33.318Z,6.71
2023-04-07T02:43:33.285Z,6.68
2023-04-07T02:44:33.260Z,6.68
2023-04-07T02:45:33.404Z,6.68
2023-04-07T02:46:33.375Z,6.66
2023-04-07T02:47:33.276Z,6.69
2023-04-07T02:48:33.227Z,6.68
2023-04-07T02:49:33.199Z,6.71
2023-04-07T02:50:33.233Z,6.69
2023-04-07T02:51:33.187Z,6.68
2023-04-07T02:52:33.187Z,6.68
2023-04-07T02:53:33.183Z,6.65
2023-04-07T02:54:33.173Z,6.65
2023-04-07T02:55:33.150Z,6.65
2023-04-07T02:56:33.147Z,6.63
2023-04-07T02:57:33.141Z,6.65
2023-04-07T02:58:33.141Z,6.63
2023-04-07T02:59:33.122Z,6.65
2023-04-07T03:00:33.095Z,6.63
2023-04-07T03:01:33.217Z,6.66
2023-04-07T03:02:33.206Z,6.65
2023-04-07T03:03:33.116Z,6.65
2023-04-07T03:04:33.073Z,6.68
2023-04-07T03:05:33.046Z,6.69
2023-04-07T03:06:33.053Z,6.71
2023-04-07T03:07:33.049Z,6.72
2023-04-07T03:08:33.015Z,6.76
2023-04-07T03:09:33.005Z,6.76
2023-04-07T03:10:32.997Z,6.76
2023-04-07T03:11:32.992Z,6.77
2023-04-07T03:12:32.991Z,6.79
2023-04-07T03:13:33.005Z,6.76
2023-04-07T03:14:33.013Z,6.80
2023-04-07T03:15:32.952Z,6.79
2023-04-07T03:16:32.976Z,6.79
2023-04-07T03:17:33.001Z,6.77
2023-04-07T03:18:32.929Z,6.76
2023-04-07T03:19:32.955Z,6.73
2023-04-07T03:20:32.949Z,6.71
2023-04-07T03:21:32.906Z,6.73
2023-04-07T03:22:32.895Z,6.73
2023-04-07T03:23:32.903Z,6.71
2023-04-07T03:24:32.960Z,6.77
2023-04-07T03:25:32.859Z,6.76
2023-04-07T03:26:32.863Z,6.77
2023-04-07T03:27:32.838Z,6.76
2023-04-07T03:28:32.825Z,6.81
2023-04-07T03:29:32.872Z,6.79
2023-04-07T03:30:32.838Z,6.81
2023-04-07T03:31:32.800Z,6.83
2023-04-07T03:32:32.830Z,6.87
2023-04-07T03:33:32.777Z,6.86
2023-04-07T03:34:32.779Z,6.87
2023-04-07T03:35:32.745Z,6.86
2023-04-07T03:36:32.840Z,6.84
2023-04-07T03:37:32.724Z,6.87
2023-04-07T03:38:32.690Z,6.87
2023-04-07T03:39:32.740Z,6.89
2023-04-07T03:40:32.722Z,6.91
2023-04-07T03:41:32.698Z,6.89
2023-04-07T03:42:32.703Z,6.84
2023-04-07T03:43:32.705Z,6.84
2023-04-07T03:44:32.681Z,6.86
2023-04-07T03:45:32.631Z,6.84
2023-04-07T03:46:32.742Z,6.80
2023-04-07T03:47:32.696Z,6.80
2023-04-07T03:48:32.618Z,6.80
2023-04-07T03:49:32.751Z,6.81
2023-04-07T03:50:32.599Z,6.79
2023-04-07T03:51:32.591Z,6.80
2023-04-07T03:52:32.635Z,6.77
2023-04-07T03:53:32.589Z,6.77
2023-04-07T03:54:32.549Z,6.79
2023-04-07T03:55:32.559Z,6.76
2023-04-07T03:56:32.562Z,6.76
2023-04-07T03:57:32.560Z,6.76
2023-04-07T03:58:32.514Z,6.73
2023-04-07T03:59:32.480Z,6.73
2023-04-07T04:00:32.492Z,6.76
2023-04-07T04:01:32.548Z,6.76
2023-04-07T04:02:32.644Z,6.73
2023-04-07T04:03:32.614Z,6.76
2023-04-07T04:04:32.494Z,6.71
2023-04-07T04:05:32.473Z,6.72
2023-04-07T04:06:32.453Z,6.76
2023-04-07T04:07:32.438Z,6.72
2023-04-07T04:08:32.420Z,6.76
2023-04-07T04:09:32.474Z,6.77
2023-04-07T04:10:32.390Z,6.76
2023-04-07T04:11:32.390Z,6.76
2023-04-07T04:12:32.424Z,6.73
2023-04-07T04:13:32.377Z,6.77
2023-04-07T04:14:32.356Z,6.76
2023-04-07T04:15:32.403Z,6.73
2023-04-07T04:16:32.431Z,6.73
2023-04-07T04:17:32.343Z,6.72
2023-04-07T04:18:32.306Z,6.69
2023-04-07T04:19:32.311Z,6.68
2023-04-07T04:20:32.299Z,6.68
2023-04-07T04:21:32.311Z,6.66
2023-04-07T04:22:32.240Z,6.68
2023-04-07T04:23:32.270Z,6.66
2023-04-07T04:24:32.256Z,6.66
2023-04-07T04:25:32.318Z,6.66
2023-04-07T04:26:32.225Z,6.66
2023-04-07T04:27:32.232Z,6.66
2023-04-07T04:28:32.236Z,6.68
2023-04-07T04:29:33.021Z,6.65
2023-04-07T04:30:32.225Z,6.65
2023-04-07T04:31:32.236Z,6.65
2023-04-07T04:32:32.265Z,6.63
2023-04-07T04:33:32.157Z,6.63
2023-04-07T04:34:32.130Z,6.65
2023-04-07T04:35:32.120Z,6.63
2023-04-07T04:36:32.120Z,6.62
2023-04-07T04:37:32.100Z,6.62
2023-04-07T04:38:32.055Z,6.61
2023-04-07T04:39:32.057Z,6.61
2023-04-07T04:40:32.031Z,6.62
2023-04-07T04:41:32.071Z,6.61
2023-04-07T04:42:32.006Z,6.62
2023-04-07T04:43:32.030Z,6.62
2023-04-07T04:44:32.019Z,6.61
2023-04-07T04:45:32.020Z,6.59
2023-04-07T04:46:32.004Z,6.59
2023-04-07T04:47:32.029Z,6.58
2023-04-07T04:48:31.969Z,6.58
2023-04-07T04:49:31.983Z,6.56
2023-04-07T04:50:31.937Z,6.56
2023-04-07T04:51:31.930Z,6.54
2023-04-07T04:52:31.915Z,6.54
2023-04-07T04:53:31.924Z,6.54
2023-04-07T04:54:31.905Z,6.54
2023-04-07T04:55:31.879Z,6.54
2023-04-07T04:56:31.881Z,6.58
2023-04-07T04:57:31.910Z,6.59
2023-04-07T04:58:31.867Z,6.59
2023-04-07T04:59:31.840Z,6.58
2023-04-07T05:00:31.857Z,6.58
2023-04-07T05:01:33.515Z,6.61
2023-04-07T05:02:32.077Z,6.62
2023-04-07T05:03:32.054Z,6.62
2023-04-07T05:04:32.085Z,6.62
2023-04-07T05:05:31.781Z,6.62
2023-04-07T05:06:31.779Z,6.61
2023-04-07T05:07:31.782Z,6.61
2023-04-07T05:08:31.765Z,6.62
2023-04-07T05:09:31.751Z,6.63
2023-04-07T05:10:31.713Z,6.63
2023-04-07T05:11:31.757Z,6.63
2023-04-07T05:12:31.735Z,6.65
2023-04-07T05:13:31.695Z,6.65
2023-04-07T05:14:31.679Z,6.65
2023-04-07T05:15:31.702Z,6.63
2023-04-07T05:16:31.701Z,6.66
2023-04-07T05:17:31.687Z,6.65
2023-04-07T05:18:31.647Z,6.66
2023-04-07T05:19:31.616Z,6.66
2023-04-07T05:20:31.638Z,6.65
2023-04-07T05:21:31.606Z,6.68
2023-04-07T05:22:31.596Z,6.69
2023-04-07T05:23:31.613Z,6.69
2023-04-07T05:24:31.565Z,6.68
2023-04-07T05:25:31.581Z,6.66
2023-04-07T05:26:31.563Z,6.71
2023-04-07T05:27:31.532Z,6.71
2023-04-07T05:28:31.540Z,6.69
2023-04-07T05:29:31.548Z,6.71
2023-04-07T05:30:31.517Z,6.71
2023-04-07T05:31:31.544Z,6.72
2023-04-07T05:32:31.539Z,6.69
2023-04-07T05:33:31.508Z,6.69
2023-04-07T05:34:31.459Z,6.69
2023-04-07T05:35:31.456Z,6.71
2023-04-07T05:36:31.519Z,6.72
2023-04-07T05:37:31.453Z,6.71
2023-04-07T05:38:31.436Z,6.72
2023-04-07T05:39:31.412Z,6.72
2023-04-07T05:40:31.396Z,6.71
2023-04-07T05:41:31.419Z,6.71
2023-04-07T05:42:31.378Z,6.77
2023-04-07T05:43:31.380Z,6.76
2023-04-07T05:44:31.397Z,6.76
2023-04-07T05:45:31.387Z,6.73
2023-04-07T05:46:31.326Z,6.77
2023-04-07T05:47:31.377Z,6.77
2023-04-07T05:48:31.307Z,6.79
2023-04-07T05:49:31.305Z,6.81
2023-04-07T05:50:31.302Z,6.84
2023-04-07T05:51:31.307Z,6.83
2023-04-07T05:52:31.273Z,6.84
2023-04-07T05:53:31.266Z,6.84
2023-04-07T05:54:31.264Z,6.84
2023-04-07T05:55:31.266Z,6.83
2023-04-07T05:56:31.237Z,6.83
2023-04-07T05:57:31.240Z,6.83
2023-04-07T05:58:31.196Z,6.83
2023-04-07T05:59:31.627Z,6.84
2023-04-07T06:01:42.063Z,6.83
2023-04-07T06:02:43.191Z,6.81
2023-04-07T06:03:43.035Z,6.83
2023-04-07T06:04:42.948Z,6.83
2023-04-07T06:05:42.969Z,6.84
2023-04-07T06:06:42.953Z,6.81
2023-04-07T06:07:42.929Z,6.81
2023-04-07T06:08:42.913Z,6.77
2023-04-07T06:09:42.917Z,6.77
2023-04-07T06:10:42.928Z,6.80
2023-04-07T06:11:42.885Z,6.79
2023-04-07T06:12:42.877Z,6.79
2023-04-07T06:13:42.856Z,6.79
2023-04-07T06:14:42.847Z,6.80
2023-04-07T06:15:42.853Z,6.80
2023-04-07T06:16:42.869Z,6.81
2023-04-07T06:17:42.876Z,6.86
2023-04-07T06:18:42.807Z,6.87
2023-04-07T06:19:42.796Z,6.91
2023-04-07T06:20:42.788Z,6.94
2023-04-07T06:21:42.797Z,6.91
2023-04-07T06:22:42.774Z,6.94
2023-04-07T06:23:42.781Z,6.95
2023-04-07T06:24:42.789Z,6.98
2023-04-07T06:25:42.748Z,7.02
2023-04-07T06:26:42.737Z,7.04
2023-04-07T06:27:42.746Z,7.08
2023-04-07T06:28:42.746Z,7.08
2023-04-07T06:29:42.711Z,7.08
2023-04-07T06:30:42.743Z,7.07
2023-04-07T06:31:42.672Z,7.08
2023-04-07T06:32:42.733Z,7.08
2023-04-07T06:33:42.666Z,7.09
2023-04-07T06:34:42.649Z,7.09
2023-04-07T06:35:42.630Z,7.08
2023-04-07T06:36:42.651Z,7.09
2023-04-07T06:37:42.627Z,7.09
2023-04-07T06:38:42.595Z,7.07
2023-04-07T06:39:42.619Z,7.01
2023-04-07T06:40:42.586Z,6.98
2023-04-07T06:41:42.571Z,6.98
2023-04-07T06:42:42.574Z,6.98
2023-04-07T06:43:42.685Z,6.99
2023-04-07T06:44:42.600Z,6.99
2023-04-07T06:45:42.578Z,7.04
2023-04-07T06:46:42.648Z,7.05
2023-04-07T06:47:42.616Z,6.99
2023-04-07T06:48:42.491Z,7.05
2023-04-07T06:49:42.505Z,7.05
2023-04-07T06:50:42.490Z,7.08
2023-04-07T06:51:42.541Z,7.13
2023-04-07T06:52:42.525Z,7.17
2023-04-07T06:53:42.482Z,7.20
2023-04-07T06:54:42.445Z,7.23
2023-04-07T06:55:42.509Z,7.26
2023-04-07T06:56:42.419Z,7.27
2023-04-07T06:57:42.414Z,7.27
2023-04-07T06:58:42.456Z,7.32
2023-04-07T06:59:42.723Z,7.37
2023-04-07T07:00:42.378Z,7.37
2023-04-07T07:01:42.494Z,7.41
2023-04-07T07:02:42.569Z,7.37
2023-04-07T07:03:42.422Z,7.31
2023-04-07T07:04:42.368Z,7.32
2023-04-07T07:05:42.323Z,7.32
2023-04-07T07:06:42.324Z,7.32
2023-04-07T07:07:42.314Z,7.34
2023-04-07T07:08:42.300Z,7.34
2023-04-07T07:09:42.335Z,7.27
2023-04-07T07:10:42.303Z,7.29
2023-04-07T07:11:42.263Z,7.26
2023-04-07T07:12:42.316Z,7.26
2023-04-07T07:13:42.289Z,7.26
2023-04-07T07:14:42.274Z,7.29
2023-04-07T07:15:42.280Z,7.29
2023-04-07T07:16:42.229Z,7.35
2023-04-07T07:17:42.214Z,7.37
2023-04-07T07:18:42.228Z,7.38
2023-04-07T07:19:42.186Z,7.47
2023-04-07T07:20:42.202Z,7.44
2023-04-07T07:21:42.195Z,7.42
2023-04-07T07:22:42.172Z,7.47
2023-04-07T07:23:42.160Z,7.50
2023-04-07T07:24:42.141Z,7.50
2023-04-07T07:25:42.163Z,7.53
2023-04-07T07:26:43.570Z,7.53
2023-04-07T07:27:42.110Z,7.55
2023-04-07T07:28:42.176Z,7.56
2023-04-07T07:29:42.095Z,7.56
2023-04-07T07:30:42.130Z,7.59
2023-04-07T07:31:42.072Z,7.66
2023-04-07T07:32:42.084Z,7.71
2023-04-07T07:33:42.062Z,7.72
2023-04-07T07:34:42.187Z,7.77
2023-04-07T07:35:42.027Z,7.78
2023-04-07T07:36:42.062Z,7.82
2023-04-07T07:37:42.023Z,7.84
2023-04-07T07:38:42.005Z,7.87
2023-04-07T07:39:41.989Z,7.90
2023-04-07T07:40:41.979Z,7.90
2023-04-07T07:41:41.985Z,7.92
2023-04-07T07:42:41.953Z,7.94
2023-04-07T07:43:41.952Z,7.96
2023-04-07T07:44:41.926Z,7.99
2023-04-07T07:45:41.906Z,8.00
2023-04-07T07:46:41.981Z,8.00
2023-04-07T07:47:42.021Z,8.03
2023-04-07T07:48:41.877Z,8.02
2023-04-07T07:49:42.123Z,8.11
2023-04-07T07:50:41.909Z,8.14
2023-04-07T07:51:41.866Z,8.15
2023-04-07T07:52:41.931Z,8.18
2023-04-07T07:53:41.812Z,8.22
2023-04-07T07:54:41.858Z,8.25
2023-04-07T07:55:41.805Z,8.26
2023-04-07T07:56:41.865Z,8.25
2023-04-07T07:57:41.887Z,8.28
2023-04-07T07:58:41.811Z,8.32
2023-04-07T07:59:41.900Z,8.30
2023-04-07T08:00:41.786Z,8.29
2023-04-07T08:01:41.899Z,8.30
2023-04-07T08:02:41.902Z,8.28
2023-04-07T08:03:41.975Z,8.18
2023-04-07T08:04:41.765Z,8.20
2023-04-07T08:05:41.705Z,8.25
2023-04-07T08:06:41.705Z,8.28
2023-04-07T08:07:41.699Z,8.32
2023-04-07T08:08:41.674Z,8.35
2023-04-07T08:09:41.666Z,8.32
2023-04-07T08:10:41.635Z,8.37
2023-04-07T08:11:41.631Z,8.40
2023-04-07T08:12:41.749Z,8.40
2023-04-07T08:13:41.642Z,8.39
2023-04-07T08:14:41.629Z,8.37
2023-04-07T08:15:41.790Z,8.40
2023-04-07T08:16:41.717Z,8.35
2023-04-07T08:17:41.572Z,8.35
2023-04-07T08:18:41.579Z,8.35
2023-04-07T08:19:41.523Z,8.29
2023-04-07T08:20:41.641Z,8.28
2023-04-07T08:21:41.614Z,8.33
2023-04-07T08:22:41.651Z,8.29
2023-04-07T08:23:41.561Z,8.26
2023-04-07T08:24:41.508Z,8.22
2023-04-07T08:25:41.483Z,8.14
2023-04-07T08:26:41.664Z,8.07
2023-04-07T08:27:41.460Z,8.08
2023-04-07T08:28:41.476Z,8.03
2023-04-07T08:29:41.445Z,7.99
2023-04-07T08:30:41.430Z,7.96
2023-04-07T08:31:41.465Z,7.99
2023-04-07T08:32:41.444Z,8.04
2023-04-07T08:33:41.434Z,8.07
2023-04-07T08:34:41.427Z,8.14
2023-04-07T08:35:41.363Z,8.11
2023-04-07T08:36:43.629Z,8.12
2023-04-07T08:37:41.489Z,8.11
2023-04-07T08:38:41.348Z,8.08
2023-04-07T08:39:41.343Z,8.07
2023-04-07T08:40:41.354Z,8.07
2023-04-07T08:41:41.413Z,8.07
2023-04-07T08:42:41.286Z,8.11
2023-04-07T08:43:41.390Z,8.10
2023-04-07T08:44:41.398Z,8.14
2023-04-07T08:45:41.620Z,8.15
2023-04-07T08:46:41.329Z,8.14
2023-04-07T08:47:41.341Z,8.17
2023-04-07T08:48:41.293Z,8.12
2023-04-07T08:49:42.025Z,8.10
2023-04-07T08:50:41.212Z,8.03
2023-04-07T08:51:42.028Z,8.00
2023-04-07T08:52:41.216Z,7.96
2023-04-07T08:53:41.348Z,7.94
2023-04-07T08:54:41.171Z,7.92
2023-04-07T08:55:41.980Z,7.85
2023-04-07T08:56:41.165Z,7.78
2023-04-07T08:57:41.190Z,7.81
2023-04-07T08:58:41.139Z,7.79
2023-04-07T08:59:41.480Z,7.78
2023-04-07T09:00:41.164Z,7.82
2023-04-07T09:01:41.181Z,7.82
2023-04-07T09:02:41.136Z,7.84
2023-04-07T09:03:41.144Z,7.89
2023-04-07T09:04:41.071Z,7.92
2023-04-07T09:05:41.160Z,7.93
2023-04-07T09:06:41.087Z,7.94
2023-04-07T09:07:41.886Z,7.94
2023-04-07T09:08:41.071Z,7.94
2023-04-07T09:09:41.012Z,8.00
2023-04-07T09:10:41.012Z,8.02
2023-04-07T09:11:40.981Z,8.07
2023-04-07T09:12:41.006Z,8.08
2023-04-07T09:13:40.997Z,8.02
2023-04-07T09:14:40.951Z,8.04
2023-04-07T09:15:40.981Z,8.03
2023-04-07T09:16:40.985Z,8.03
2023-04-07T09:17:40.940Z,8.07
2023-04-07T09:18:40.914Z,8.11
2023-04-07T09:19:40.898Z,8.10
2023-04-07T09:20:40.910Z,8.08
2023-04-07T09:21:40.860Z,8.04
2023-04-07T09:22:40.857Z,7.96
2023-04-07T09:23:40.841Z,7.93
2023-04-07T09:24:40.839Z,7.89
2023-04-07T09:25:40.844Z,7.84
2023-04-07T09:26:40.804Z,7.85
2023-04-07T09:27:40.791Z,7.87
2023-04-07T09:28:40.797Z,7.90
2023-04-07T09:29:40.792Z,7.85
2023-04-07T09:30:40.778Z,7.84
2023-04-07T09:31:40.828Z,7.90
2023-04-07T09:32:40.786Z,7.96
2023-04-07T09:33:40.744Z,7.96
2023-04-07T09:34:41.269Z,7.99
2023-04-07T09:35:40.755Z,8.03
2023-04-07T09:36:40.732Z,8.07
2023-04-07T09:37:40.682Z,8.07
2023-04-07T09:38:40.692Z,8.07
2023-04-07T09:39:40.680Z,8.11
2023-04-07T09:40:40.675Z,8.14
2023-04-07T09:41:40.700Z,8.15
2023-04-07T09:42:40.656Z,8.14
2023-04-07T09:43:40.613Z,8.11
2023-04-07T09:44:40.625Z,8.10
2023-04-07T09:45:40.701Z,8.10
2023-04-07T09:46:40.633Z,8.00
2023-04-07T09:47:40.637Z,8.00
2023-04-07T09:48:40.592Z,7.97
2023-04-07T09:49:40.588Z,7.93
2023-04-07T09:50:40.589Z,7.93
2023-04-07T09:51:40.648Z,7.94
2023-04-07T09:52:40.741Z,7.87
2023-04-07T09:53:40.522Z,7.81
2023-04-07T09:54:40.526Z,7.78
2023-04-07T09:55:40.537Z,7.79
2023-04-07T09:56:40.491Z,7.81
2023-04-07T09:57:40.533Z,7.90
2023-04-07T09:58:40.476Z,7.93
2023-04-07T09:59:40.486Z,7.93
2023-04-07T10:00:40.462Z,7.92
2023-04-07T10:01:40.487Z,7.89
2023-04-07T10:02:40.534Z,7.90
2023-04-07T10:03:40.562Z,7.92
2023-04-07T10:04:40.507Z,7.93
2023-04-07T10:05:40.444Z,7.93
2023-04-07T10:06:40.380Z,7.94
2023-04-07T10:09:06.903Z,7.97
2023-04-07T10:10:07.881Z,8.03
2023-04-07T10:11:07.876Z,8.08
2023-04-07T10:12:07.862Z,8.10
2023-04-07T10:13:07.866Z,8.11
2023-04-07T10:14:07.837Z,8.17
2023-04-07T10:15:14.351Z,8.21
2023-04-07T10:16:07.832Z,8.28
2023-04-07T10:17:07.839Z,8.26
2023-04-07T10:18:07.864Z,8.18
2023-04-07T10:19:07.785Z,8.11
2023-04-07T10:20:07.785Z,8.02
2023-04-07T10:21:07.865Z,7.92
2023-04-07T10:22:07.784Z,7.93
2023-04-07T10:23:07.794Z,7.97
2023-04-07T10:24:07.738Z,8.02
2023-04-07T10:25:07.771Z,8.07
2023-04-07T10:26:07.732Z,8.10
2023-04-07T10:27:07.733Z,8.15
2023-04-07T10:28:07.692Z,8.17
2023-04-07T10:29:07.720Z,8.21
2023-04-07T10:30:07.727Z,8.29
2023-04-07T10:31:07.731Z,8.33
2023-04-07T10:32:07.682Z,8.37
2023-04-07T10:33:07.689Z,8.37
2023-04-07T10:34:07.650Z,8.33
2023-04-07T10:35:07.647Z,8.30
2023-04-07T10:36:07.794Z,8.21
2023-04-07T10:37:07.605Z,8.14
2023-04-07T10:38:07.938Z,8.12
2023-04-07T10:39:07.609Z,8.07
2023-04-07T10:40:07.571Z,8.08
2023-04-07T10:41:07.580Z,8.12
2023-04-07T10:42:07.536Z,8.15
2023-04-07T10:43:07.547Z,8.15
2023-04-07T10:44:07.535Z,8.17
2023-04-07T10:45:07.538Z,8.21
2023-04-07T10:46:07.544Z,8.22
2023-04-07T10:47:07.549Z,8.20
2023-04-07T10:48:07.671Z,8.21
2023-04-07T10:49:07.474Z,8.22
2023-04-07T10:50:07.473Z,8.28
2023-04-07T10:51:07.456Z,8.25
2023-04-07T10:52:07.443Z,8.22
2023-04-07T10:53:07.429Z,8.28
2023-04-07T10:54:07.407Z,8.29
2023-04-07T10:55:07.413Z,8.30
2023-04-07T10:56:07.392Z,8.32
2023-04-07T10:57:07.403Z,8.29
2023-04-07T10:58:07.381Z,8.32
2023-04-07T10:59:07.384Z,8.33
2023-04-07T11:00:07.363Z,8.33
2023-04-07T11:01:07.373Z,8.30
2023-04-07T11:02:07.416Z,8.30
2023-04-07T11:03:07.453Z,8.30
2023-04-07T11:04:07.353Z,8.26
2023-04-07T11:05:07.314Z,8.20
2023-04-07T11:06:07.276Z,8.21
2023-04-07T11:07:07.322Z,8.21
2023-04-07T11:08:07.283Z,8.26
2023-04-07T11:09:07.294Z,8.28
2023-04-07T11:10:07.241Z,8.30
2023-04-07T11:11:07.229Z,8.33
2023-04-07T11:12:07.212Z,8.32
2023-04-07T11:13:07.263Z,8.30
2023-04-07T11:14:07.197Z,8.36
2023-04-07T11:15:07.212Z,8.40
2023-04-07T11:16:07.244Z,8.44
2023-04-07T11:17:07.192Z,8.47
2023-04-07T11:18:07.164Z,8.50
2023-04-07T11:19:07.183Z,8.53
2023-04-07T11:20:07.191Z,8.55
2023-04-07T11:21:07.159Z,8.54
2023-04-07T11:22:09.871Z,8.58
2023-04-07T11:23:07.147Z,8.63
2023-04-07T11:24:07.115Z,8.65
2023-04-07T11:25:07.110Z,8.68
2023-04-07T11:26:07.091Z,8.72
2023-04-07T11:27:07.087Z,8.75
2023-04-07T11:28:07.045Z,8.76
2023-04-07T11:29:07.059Z,8.72
2023-04-07T11:30:07.052Z,8.73
2023-04-07T11:31:07.067Z,8.72
2023-04-07T11:32:07.013Z,8.69
2023-04-07T11:33:07.065Z,8.69
2023-04-07T11:34:07.003Z,8.66
2023-04-07T11:35:06.985Z,8.60
2023-04-07T11:36:07.009Z,8.54
2023-04-07T11:37:06.964Z,8.51
2023-04-07T11:38:06.956Z,8.45
2023-04-07T11:39:06.981Z,8.42
2023-04-07T11:40:06.941Z,8.39
2023-04-07T11:41:06.936Z,8.37
2023-04-07T11:42:06.929Z,8.37
2023-04-07T11:43:06.899Z,8.37
2023-04-07T11:44:06.905Z,8.36
2023-04-07T11:45:08.273Z,8.39
2023-04-07T11:46:07.270Z,8.36
2023-04-07T11:47:07.074Z,8.35
2023-04-07T11:48:06.894Z,8.29
2023-04-07T11:49:06.854Z,8.30
2023-04-07T11:50:06.836Z,8.33
2023-04-07T11:51:06.828Z,8.40
2023-04-07T11:52:06.904Z,8.48
2023-04-07T11:53:06.829Z,8.51
2023-04-07T11:54:06.783Z,8.58
2023-04-07T11:55:06.773Z,8.65
2023-04-07T11:56:06.793Z,8.72
2023-04-07T11:57:06.786Z,8.73
2023-04-07T11:58:06.766Z,8.65
2023-04-07T11:59:06.740Z,8.72
2023-04-07T12:00:06.733Z,8.76
2023-04-07T12:01:06.740Z,8.86
2023-04-07T12:02:06.772Z,8.93
2023-04-07T12:03:06.882Z,9.02
2023-04-07T12:04:06.841Z,9.12
2023-04-07T12:05:06.788Z,9.18
2023-04-07T12:06:06.655Z,9.20
2023-04-07T12:07:06.655Z,9.23
2023-04-07T12:08:06.644Z,9.21
2023-04-07T12:09:06.647Z,9.25
2023-04-07T12:10:06.611Z,9.27
2023-04-07T12:11:06.608Z,9.31
2023-04-07T12:12:06.600Z,9.31
2023-04-07T12:13:06.589Z,9.34
2023-04-07T12:14:06.561Z,9.34
2023-04-07T12:15:06.597Z,9.30
2023-04-07T12:16:06.579Z,9.25
2023-04-07T12:17:06.558Z,9.28
2023-04-07T12:18:06.702Z,9.27
2023-04-07T12:19:06.515Z,9.23
2023-04-07T12:20:06.500Z,9.23
2023-04-07T12:21:06.534Z,9.21
2023-04-07T12:22:06.479Z,9.25
2023-04-07T12:23:06.493Z,9.28
2023-04-07T12:24:06.494Z,9.34
2023-04-07T12:25:06.459Z,9.35
2023-04-07T12:26:06.481Z,9.39
2023-04-07T12:27:06.445Z,9.40
2023-04-07T12:28:06.425Z,9.40
2023-04-07T12:29:06.419Z,9.43
2023-04-07T12:30:06.425Z,9.42
2023-04-07T12:31:06.406Z,9.42
2023-04-07T12:32:06.599Z,9.46
2023-04-07T12:33:06.431Z,9.48
2023-04-07T12:34:06.365Z,9.48
2023-04-07T12:35:06.391Z,9.57
2023-04-07T12:36:06.407Z,9.57
2023-04-07T12:37:06.330Z,9.53
2023-04-07T12:38:06.326Z,9.58
2023-04-07T12:39:06.302Z,9.61
2023-04-07T12:40:06.361Z,9.63
2023-04-07T12:41:06.291Z,9.63
2023-04-07T12:42:06.278Z,9.60
2023-04-07T12:43:06.280Z,9.64
2023-04-07T12:44:06.268Z,9.67
2023-04-07T12:45:06.248Z,9.63
2023-04-07T12:46:06.262Z,9.63
2023-04-07T12:47:06.223Z,9.61
2023-04-07T12:48:06.260Z,9.60
2023-04-07T12:49:06.193Z,9.56
2023-04-07T12:50:06.195Z,9.53
2023-04-07T12:51:06.228Z,9.52
2023-04-07T12:52:06.176Z,9.56
2023-04-07T12:53:06.165Z,9.52
2023-04-07T12:54:06.163Z,9.48
2023-04-07T12:55:06.139Z,9.46
2023-04-07T12:56:06.135Z,9.45
2023-04-07T12:57:06.133Z,9.43
2023-04-07T12:58:06.136Z,9.48
2023-04-07T12:59:06.096Z,9.48
2023-04-07T13:00:06.138Z,9.43
2023-04-07T13:01:06.151Z,9.45
2023-04-07T13:02:06.287Z,9.43
2023-04-07T13:03:06.216Z,9.43
2023-04-07T13:04:06.214Z,9.48
2023-04-07T13:05:06.086Z,9.52
2023-04-07T13:06:06.043Z,9.50
2023-04-07T13:07:06.047Z,9.49
2023-04-07T13:08:06.006Z,9.49
2023-04-07T13:09:05.985Z,9.52
2023-04-07T13:10:05.994Z,9.49
2023-04-07T13:11:05.974Z,9.50
2023-04-07T13:12:05.958Z,9.49
2023-04-07T13:13:06.026Z,9.45
2023-04-07T13:14:05.932Z,9.42
2023-04-07T13:15:05.925Z,9.43
2023-04-07T13:16:05.946Z,9.46
2023-04-07T13:17:05.986Z,9.43
2023-04-07T13:18:05.963Z,9.43
2023-04-07T13:19:05.891Z,9.45
2023-04-07T13:20:05.895Z,9.43
2023-04-07T13:21:40.621Z,9.45